Terminal Aerodrome Forecast
Issued by NWS

Home | Current Version | Previous Version | Graphics & Text | Print | Product List | Glossary On
Versions: 1 2 3 4 5 6 7 8 9 10 11 12 13 14 15 16 17
000
FTUS43 KBIS 201730
TAFMOT
TAF
KMOT 201730Z 2018/2118 15012G18KT P6SM FEW090 SCT250
     FM202200 11011KT P6SM SCT090 BKN200
     FM202300 08012KT P6SM VCTS SCT090CB SCT200
     FM210600 09008KT P6SM SCT080 BKN200=

USA.gov is the U.S. government's official web portal to all federal, state and local government web resources and services.